Time;durP1;ratioP1;P1;durP2;ratioP2;P2;SDS_P1;SDS_P2;PMS_P1;PMS_P2;Temp;Humidity;BMP_temperature;BMP_pressure;BME280_temperature;BME280_humidity;BME280_pressure;Samples;Min_cycle;Max_cycle;Signal;HPM_P1;HPM_P2
2021/11/19 00:00:36;;;;;;;;;;;;;;;;;;2091409;28;1363;-86
2021/11/19 00:01:39;;;;;;;;;;;;;;;;;;2091104;28;1319;-86
2021/11/19 00:02:40;;;;;;;;;;;;;;;;;;2083440;28;1263;-87
2021/11/19 00:03:44;;;;;;;;;;;;;;;;;;2090841;28;1241;-86
2021/11/19 00:04:45;;;;;;;;;;;;;;;;;;2091716;28;880;-86
2021/11/19 00:05:47;;;;;;;;;;;;;;;;;;2090907;28;1346;-86
2021/11/19 00:06:49;;;;;;;;;;;;;;;;;;2091004;28;1967;-86
2021/11/19 00:07:52;;;;;;;;;;;;;;;;;;2091569;28;919;-86
2021/11/19 00:08:52;;;;;;;;;;;;;;;;;;2098977;28;1149;-86
2021/11/19 00:09:54;;;;;;;;;;;;;;;;;;2090449;28;1326;-86
2021/11/19 00:10:55;;;;;;;;;;;;;;;;;;2082568;28;1877;-87
2021/11/19 00:11:57;;;;;;;;;;;;;;;;;;2090810;28;1055;-85
2021/11/19 00:12:58;;;;;;;;;;;;;;;;;;2082526;28;1270;-86
2021/11/19 00:14:00;;;;;;;;;;;;;;;;;;2083138;28;1310;-85
2021/11/19 00:15:01;;;;;;;;;;;;;;;;;;2099364;28;983;-86
2021/11/19 00:16:03;;;;;;;;;;;;;;;;;;2093095;28;1260;-87
2021/11/19 00:17:05;;;;;;;;;;;;;;;;;;2107351;28;1309;-86
2021/11/19 00:18:07;;;;;;;;;;;;;;;;;;2107747;28;1488;-86
2021/11/19 00:19:08;;;;;;;;;;;;;;;;;;2099402;28;1266;-86
2021/11/19 00:20:11;;;;;;;;;;;;;;;;;;2099083;28;1261;-87
2021/11/19 00:21:12;;;;;;;;;;;;;;;;;;2096818;28;1331;-86
2021/11/19 00:22:18;;;;;;;;;;;;;;;;;;2082527;28;1391;-86
2021/11/19 00:23:18;;;;;;;;;;;;;;;;;;2083530;28;1982;-86
2021/11/19 00:24:20;;;;;;;;;;;;;;;;;;2091045;28;1488;-86
2021/11/19 00:25:21;;;;;;;;;;;;;;;;;;2099256;28;1214;-86
2021/11/19 00:26:24;;;;;;;;;;;;;;;;;;2094999;28;2150;-88
2021/11/19 00:27:25;;;;;;;;;;;;;;;;;;2090905;28;1281;-86
2021/11/19 00:28:29;;;;;;;;;;;;;;;;;;2088126;28;1515;-86
2021/11/19 00:29:29;;;;;;;;;;;;;;;;;;2082365;28;1152;-86
2021/11/19 00:30:32;;;;;;;;;;;;;;;;;;2091147;28;1326;-86
2021/11/19 00:31:33;;;;;;;;;;;;;;;;;;2104453;28;2032;-86
2021/11/19 00:32:35;;;;;;;;;;;;;;;;;;2099166;28;1393;-86
2021/11/19 00:33:36;;;;;;;;;;;;;;;;;;2098612;28;1191;-86
2021/11/19 00:34:38;;;;;;;;;;;;;;;;;;2099303;28;1258;-86
2021/11/19 00:35:41;;;;;;;;;;;;;;;;;;2099304;28;1347;-86
2021/11/19 00:36:44;;;;;;;;;;;;;;;;;;2092228;28;1282;-86
2021/11/19 00:37:47;;;;;;;;;;;;;;;;;;2090695;28;1203;-87
2021/11/19 00:38:50;;;;;;;;;;;;;;;;;;2099298;28;1289;-87
2021/11/19 00:39:51;;;;;;;;;;;;;;;;;;2099139;28;1294;-86
2021/11/19 00:40:54;;;;;;;;;;;;;;;;;;2099127;28;1190;-86
2021/11/19 00:41:56;;;;;;;;;;;;;;;;;;2090813;28;1194;-87
2021/11/19 00:42:59;;;;;;;;;;;;;;;;;;2091970;28;1215;-86
2021/11/19 00:44:00;;;;;;;;;;;;;;;;;;2099192;28;1259;-86
2021/11/19 00:45:02;;;;;;;;;;;;;;;;;;2099040;28;1187;-86
2021/11/19 00:46:02;;;;;;;;;;;;;;;;;;2090947;28;1389;-86
2021/11/19 00:47:04;;;;;;;;;;;;;;;;;;2090466;28;1910;-86
2021/11/19 00:48:06;;;;;;;;;;;;;;;;;;2082574;28;1183;-86
2021/11/19 00:49:09;;;;;;;;;;;;;;;;;;2091068;28;1278;-86
2021/11/19 00:50:11;;;;;;;;;;;;;;;;;;2098647;28;1396;-86
2021/11/19 00:51:16;;;;;;;;;;;;;;;;;;2107516;28;1251;-86
2021/11/19 00:52:17;;;;;;;;;;;;;;;;;;2098858;28;1253;-86
2021/11/19 00:53:21;;;;;;;;;;;;;;;;;;2098815;28;1336;-86
2021/11/19 00:54:22;;;;;;;;;;;;;;;;;;2098919;28;1365;-86
2021/11/19 00:55:25;;;;;;;;;;;;;;;;;;2098989;28;1360;-86
2021/11/19 00:56:27;;;;;;;;;;;;;;;;;;2098943;28;1435;-86
2021/11/19 00:57:29;;;;;;;;;;;;;;;;;;2098811;28;1459;-86
2021/11/19 00:58:30;;;;;;;;;;;;;;;;;;2099189;28;994;-86
2021/11/19 00:59:34;;;;;;;;;;;;;;;;;;2099111;28;1453;-86
2021/11/19 01:00:38;;;;;;;;;;;;;;;;;;2091095;28;1350;-86
2021/11/19 01:01:42;;;;;;;;;;;;;;;;;;2084712;28;1237;-86
2021/11/19 01:02:42;;;;;;;;;;;;;;;;;;2074941;28;1263;-86
2021/11/19 01:03:44;;;;;;;;;;;;;;;;;;2089323;28;1566;-86
2021/11/19 01:04:45;;;;;;;;;;;;;;;;;;2090853;28;1016;-87
2021/11/19 01:05:48;;;;;;;;;;;;;;;;;;2090770;28;1173;-87
2021/11/19 01:06:49;;;;;;;;;;;;;;;;;;2090726;28;1921;-87
2021/11/19 01:07:51;;;;;;;;;;;;;;;;;;2090851;28;1232;-88
2021/11/19 01:08:53;;;;;;;;;;;;;;;;;;2091067;28;1454;-87
2021/11/19 01:09:56;;;;;;;;;;;;;;;;;;2090834;28;1183;-87
2021/11/19 01:10:58;;;;;;;;;;;;;;;;;;2090204;28;2123;-88
2021/11/19 01:12:01;;;;;;;;;;;;;;;;;;2082689;28;1287;-87
2021/11/19 01:13:03;;;;;;;;;;;;;;;;;;2083691;28;1286;-87
2021/11/19 01:14:06;;;;;;;;;;;;;;;;;;2082769;28;1343;-86
2021/11/19 01:15:08;;;;;;;;;;;;;;;;;;2082968;28;921;-87
2021/11/19 01:16:11;;;;;;;;;;;;;;;;;;2090806;28;1361;-87
2021/11/19 01:17:14;;;;;;;;;;;;;;;;;;2090937;28;963;-87
2021/11/19 01:18:18;;;;;;;;;;;;;;;;;;2090672;28;1361;-87
2021/11/19 01:19:26;;;;;;;;;;;;;;;;;;2090851;28;1425;-87
2021/11/19 01:20:30;;;;;;;;;;;;;;;;;;2090842;28;1345;-87
2021/11/19 01:21:33;;;;;;;;;;;;;;;;;;2082906;28;1305;-87
2021/11/19 01:22:36;;;;;;;;;;;;;;;;;;2084767;28;1185;-86
2021/11/19 01:23:37;;;;;;;;;;;;;;;;;;2085015;28;2024;-86
2021/11/19 01:24:41;;;;;;;;;;;;;;;;;;2092624;28;1223;-87
2021/11/19 01:25:42;;;;;;;;;;;;;;;;;;2092337;28;1393;-87
2021/11/19 01:26:46;;;;;;;;;;;;;;;;;;2084270;28;1917;-87
2021/11/19 01:27:47;;;;;;;;;;;;;;;;;;2083843;28;1272;-87
2021/11/19 01:28:50;;;;;;;;;;;;;;;;;;2076114;28;1177;-86
2021/11/19 01:29:52;;;;;;;;;;;;;;;;;;2075972;28;1412;-86
2021/11/19 01:30:57;;;;;;;;;;;;;;;;;;2084369;28;1299;-86
2021/11/19 01:32:01;;;;;;;;;;;;;;;;;;2084358;28;1219;-86
2021/11/19 01:33:22;;;;;;;;;;;;;;;;;;2093171;28;1090;-85
2021/11/19 01:34:29;;;;;;;;;;;;;;;;;;2092324;28;1271;-87
2021/11/19 01:35:54;;;;;;;;;;;;;;;;;;2092199;28;1251;-86
2021/11/19 01:36:58;;;;;;;;;;;;;;;;;;2092360;28;801;-87
2021/11/19 01:38:15;;;;;;;;;;;;;;;;;;2104144;28;1901;-87
2021/11/19 01:39:35;;;;;;;;;;;;;;;;;;2100570;28;1219;-86
2021/11/19 01:40:53;;;;;;;;;;;;;;;;;;2102504;28;1274;-86
2021/11/19 01:42:04;;;;;;;;;;;;;;;;;;2100708;28;1303;-86
2021/11/19 01:43:07;;;;;;;;;;;;;;;;;;2099871;28;1250;-86
2021/11/19 01:44:13;;;;;;;;;;;;;;;;;;2092331;28;1180;-87
2021/11/19 01:45:16;;;;;;;;;;;;;;;;;;2092085;28;967;-87
2021/11/19 01:46:18;;;;;;;;;;;;;;;;;;2098881;28;1223;-87
2021/11/19 01:47:20;;;;;;;;;;;;;;;;;;2092090;28;1979;-86
2021/11/19 01:48:22;;;;;;;;;;;;;;;;;;2092106;28;2058;-86
2021/11/19 01:49:25;;;;;;;;;;;;;;;;;;2100262;28;1305;-87
2021/11/19 01:50:28;;;;;;;;;;;;;;;;;;2092285;28;1348;-86
2021/11/19 01:51:33;;;;;;;;;;;;;;;;;;2092308;28;1901;-86
2021/11/19 01:52:36;;;;;;;;;;;;;;;;;;2092766;28;1183;-86
2021/11/19 01:53:41;;;;;;;;;;;;;;;;;;2085408;28;2015;-86
2021/11/19 01:54:45;;;;;;;;;;;;;;;;;;2083977;28;1414;-88
2021/11/19 01:55:50;;;;;;;;;;;;;;;;;;2084147;28;1191;-86
2021/11/19 01:56:55;;;;;;;;;;;;;;;;;;2084554;28;1309;-87
2021/11/19 01:58:00;;;;;;;;;;;;;;;;;;2084019;28;1283;-86
2021/11/19 01:59:13;;;;;;;;;;;;;;;;;;2092430;28;1286;-86
2021/11/19 02:00:17;;;;;;;;;;;;;;;;;;2092189;28;1263;-87
2021/11/19 02:01:19;;;;;;;;;;;;;;;;;;2095014;28;2106;-86
2021/11/19 02:02:23;;;;;;;;;;;;;;;;;;2100427;28;1177;-85
2021/11/19 02:03:27;;;;;;;;;;;;;;;;;;2100059;28;2033;-85
2021/11/19 02:04:30;;;;;;;;;;;;;;;;;;2092458;28;1045;-86
2021/11/19 02:05:34;;;;;;;;;;;;;;;;;;2092243;28;1310;-86
2021/11/19 02:06:36;;;;;;;;;;;;;;;;;;2092493;28;1206;-86
2021/11/19 02:07:53;;;;;;;;;;;;;;;;;;2093955;28;1671;-86
2021/11/19 02:09:06;;;;;;;;;;;;;;;;;;2100362;28;1101;-86
2021/11/19 02:10:10;;;;;;;;;;;;;;;;;;2100016;28;1246;-85
2021/11/19 02:11:17;;;;;;;;;;;;;;;;;;2100297;28;1595;-85
2021/11/19 02:12:26;;;;;;;;;;;;;;;;;;2100543;28;1271;-85
2021/11/19 02:13:30;;;;;;;;;;;;;;;;;;2103541;28;1497;-85
2021/11/19 02:14:37;;;;;;;;;;;;;;;;;;2100283;28;1353;-86
2021/11/19 02:15:41;;;;;;;;;;;;;;;;;;2099794;28;1262;-86
2021/11/19 02:16:45;;;;;;;;;;;;;;;;;;2100164;28;2005;-86
2021/11/19 02:17:48;;;;;;;;;;;;;;;;;;2100104;28;1456;-86
2021/11/19 02:18:55;;;;;;;;;;;;;;;;;;2100810;28;1330;-86
2021/11/19 02:19:58;;;;;;;;;;;;;;;;;;2100215;28;1387;-86
2021/11/19 02:21:02;;;;;;;;;;;;;;;;;;2099909;28;1411;-86
2021/11/19 02:22:04;;;;;;;;;;;;;;;;;;2091912;28;1141;-86
2021/11/19 02:23:09;;;;;;;;;;;;;;;;;;2091899;28;1225;-86
2021/11/19 02:24:12;;;;;;;;;;;;;;;;;;2092475;28;1164;-86
2021/11/19 02:25:17;;;;;;;;;;;;;;;;;;2091790;28;1155;-86
2021/11/19 02:26:19;;;;;;;;;;;;;;;;;;2095200;28;1279;-86
2021/11/19 02:27:24;;;;;;;;;;;;;;;;;;2091651;28;1910;-86
2021/11/19 02:28:25;;;;;;;;;;;;;;;;;;2083956;28;1203;-86
2021/11/19 02:29:29;;;;;;;;;;;;;;;;;;2083820;28;1347;-86
2021/11/19 02:30:33;;;;;;;;;;;;;;;;;;2092266;28;1292;-85
2021/11/19 02:31:36;;;;;;;;;;;;;;;;;;2100010;28;1271;-87
2021/11/19 02:32:38;;;;;;;;;;;;;;;;;;2092041;28;1298;-86
2021/11/19 02:33:41;;;;;;;;;;;;;;;;;;2091081;28;1460;-84
2021/11/19 02:34:42;;;;;;;;;;;;;;;;;;2091691;28;1380;-87
2021/11/19 02:35:49;;;;;;;;;;;;;;;;;;2084044;28;1501;-86
2021/11/19 02:36:52;;;;;;;;;;;;;;;;;;2091723;28;1560;-86
2021/11/19 02:37:56;;;;;;;;;;;;;;;;;;2083674;28;1311;-86
2021/11/19 02:39:00;;;;;;;;;;;;;;;;;;2092022;28;1267;-86
2021/11/19 02:40:04;;;;;;;;;;;;;;;;;;2099340;28;1328;-86
2021/11/19 02:41:09;;;;;;;;;;;;;;;;;;2094440;28;1204;-86
2021/11/19 02:42:12;;;;;;;;;;;;;;;;;;2100335;28;1275;-85
2021/11/19 02:43:17;;;;;;;;;;;;;;;;;;2099973;28;1220;-87
2021/11/19 02:44:21;;;;;;;;;;;;;;;;;;2092450;28;1419;-86
2021/11/19 02:45:24;;;;;;;;;;;;;;;;;;2091788;28;1298;-86
2021/11/19 02:46:30;;;;;;;;;;;;;;;;;;2096150;28;1605;-86
2021/11/19 02:47:32;;;;;;;;;;;;;;;;;;2091620;28;1969;-85
2021/11/19 02:48:35;;;;;;;;;;;;;;;;;;2091948;28;1160;-85
2021/11/19 02:49:38;;;;;;;;;;;;;;;;;;2092057;28;1359;-85
2021/11/19 02:50:40;;;;;;;;;;;;;;;;;;2091756;28;1253;-86
2021/11/19 02:51:41;;;;;;;;;;;;;;;;;;2083621;28;1349;-85
2021/11/19 02:52:46;;;;;;;;;;;;;;;;;;2084198;28;1189;-85
2021/11/19 02:53:48;;;;;;;;;;;;;;;;;;2091639;28;1204;-86
2021/11/19 02:54:50;;;;;;;;;;;;;;;;;;2083606;28;1254;-85
2021/11/19 02:55:53;;;;;;;;;;;;;;;;;;2083604;28;1403;-85
2021/11/19 02:56:55;;;;;;;;;;;;;;;;;;2091814;28;1385;-85
2021/11/19 02:57:56;;;;;;;;;;;;;;;;;;2083088;28;1192;-86
2021/11/19 02:59:00;;;;;;;;;;;;;;;;;;2091679;28;1140;-85
2021/11/19 03:00:02;;;;;;;;;;;;;;;;;;2091763;28;1342;-85
2021/11/19 03:01:07;;;;;;;;;;;;;;;;;;2093443;28;1235;-85
2021/11/19 03:02:09;;;;;;;;;;;;;;;;;;2099941;28;1237;-85
2021/11/19 03:03:12;;;;;;;;;;;;;;;;;;2099550;28;2104;-85
2021/11/19 03:04:15;;;;;;;;;;;;;;;;;;2091609;28;1058;-86
2021/11/19 03:05:19;;;;;;;;;;;;;;;;;;2083954;28;1276;-85
2021/11/19 03:06:19;;;;;;;;;;;;;;;;;;2083225;28;1299;-85
2021/11/19 03:07:21;;;;;;;;;;;;;;;;;;2083199;28;1918;-86
2021/11/19 03:08:23;;;;;;;;;;;;;;;;;;2091191;28;1869;-85
2021/11/19 03:09:33;;;;;;;;;;;;;;;;;;2099939;28;1674;-86
2021/11/19 03:10:37;;;;;;;;;;;;;;;;;;2091071;28;1239;-85
2021/11/19 03:11:39;;;;;;;;;;;;;;;;;;2091890;28;1464;-85
2021/11/19 03:12:40;;;;;;;;;;;;;;;;;;2091608;28;1227;-85
2021/11/19 03:13:42;;;;;;;;;;;;;;;;;;2074950;28;1436;-86
2021/11/19 03:14:45;;;;;;;;;;;;;;;;;;2075408;28;1544;-85
2021/11/19 03:15:49;;;;;;;;;;;;;;;;;;2074859;28;1321;-85
2021/11/19 03:16:50;;;;;;;;;;;;;;;;;;2090977;28;2105;-85
2021/11/19 03:17:52;;;;;;;;;;;;;;;;;;2082531;28;2048;-85
2021/11/19 03:18:52;;;;;;;;;;;;;;;;;;2083681;28;1192;-85
2021/11/19 03:19:55;;;;;;;;;;;;;;;;;;2091091;28;1346;-85
2021/11/19 03:20:57;;;;;;;;;;;;;;;;;;2091967;28;2099;-86
2021/11/19 03:21:59;;;;;;;;;;;;;;;;;;2091756;28;1354;-85
2021/11/19 03:23:00;;;;;;;;;;;;;;;;;;2091384;28;965;-86
2021/11/19 03:24:02;;;;;;;;;;;;;;;;;;2091243;28;1322;-85
2021/11/19 03:25:03;;;;;;;;;;;;;;;;;;2083390;28;1714;-85
2021/11/19 03:26:05;;;;;;;;;;;;;;;;;;2091397;28;1405;-86
2021/11/19 03:27:10;;;;;;;;;;;;;;;;;;2083299;28;1610;-85
2021/11/19 03:28:15;;;;;;;;;;;;;;;;;;2087375;28;1171;-85
2021/11/19 03:29:18;;;;;;;;;;;;;;;;;;2091556;28;1279;-85
2021/11/19 03:30:21;;;;;;;;;;;;;;;;;;2091324;28;1334;-85
2021/11/19 03:31:24;;;;;;;;;;;;;;;;;;2095099;28;1323;-85
2021/11/19 03:32:26;;;;;;;;;;;;;;;;;;2099431;28;1324;-86
2021/11/19 03:33:29;;;;;;;;;;;;;;;;;;2091378;28;1505;-86
2021/11/19 03:34:30;;;;;;;;;;;;;;;;;;2091251;28;1428;-87
2021/11/19 03:35:32;;;;;;;;;;;;;;;;;;2099674;28;1231;-85
2021/11/19 03:36:33;;;;;;;;;;;;;;;;;;2083185;28;1411;-86
2021/11/19 03:37:35;;;;;;;;;;;;;;;;;;2091313;28;1223;-86
2021/11/19 03:38:36;;;;;;;;;;;;;;;;;;2090929;28;2062;-84
2021/11/19 03:39:39;;;;;;;;;;;;;;;;;;2091070;28;1275;-85
2021/11/19 03:40:41;;;;;;;;;;;;;;;;;;2091337;28;1226;-85
2021/11/19 03:41:44;;;;;;;;;;;;;;;;;;2090938;28;1269;-86
2021/11/19 03:42:45;;;;;;;;;;;;;;;;;;2091546;28;1235;-86
2021/11/19 03:43:49;;;;;;;;;;;;;;;;;;2091066;28;1323;-85
2021/11/19 03:44:51;;;;;;;;;;;;;;;;;;2082894;28;1307;-86
2021/11/19 03:45:57;;;;;;;;;;;;;;;;;;2082568;28;1200;-87
2021/11/19 03:47:00;;;;;;;;;;;;;;;;;;2090951;28;1342;-88
2021/11/19 03:48:02;;;;;;;;;;;;;;;;;;2094551;28;2042;-87
2021/11/19 03:49:05;;;;;;;;;;;;;;;;;;2091349;28;1169;-86
2021/11/19 03:50:09;;;;;;;;;;;;;;;;;;2083124;28;1321;-85
2021/11/19 03:51:12;;;;;;;;;;;;;;;;;;2093600;28;1168;-87
2021/11/19 03:52:17;;;;;;;;;;;;;;;;;;2107699;28;1157;-87
2021/11/19 03:53:18;;;;;;;;;;;;;;;;;;2091231;28;1154;-87
2021/11/19 03:54:21;;;;;;;;;;;;;;;;;;2091380;28;1227;-85
2021/11/19 03:55:27;;;;;;;;;;;;;;;;;;2091324;28;1301;-85
2021/11/19 03:56:29;;;;;;;;;;;;;;;;;;2091722;28;1227;-85
2021/11/19 03:57:30;;;;;;;;;;;;;;;;;;2099343;28;1278;-85
2021/11/19 03:58:33;;;;;;;;;;;;;;;;;;2098396;28;1895;-85
2021/11/19 03:59:34;;;;;;;;;;;;;;;;;;2090928;28;1184;-85
2021/11/19 04:00:37;;;;;;;;;;;;;;;;;;2082803;28;1413;-85
2021/11/19 04:01:41;;;;;;;;;;;;;;;;;;2082883;28;1531;-86
2021/11/19 04:02:43;;;;;;;;;;;;;;;;;;2083449;28;1274;-86
2021/11/19 04:03:47;;;;;;;;;;;;;;;;;;2091186;28;2034;-87
2021/11/19 04:04:49;;;;;;;;;;;;;;;;;;2082893;28;1231;-87
2021/11/19 04:05:50;;;;;;;;;;;;;;;;;;2082921;28;1302;-87
2021/11/19 04:06:53;;;;;;;;;;;;;;;;;;2082946;28;1275;-88
2021/11/19 04:07:54;;;;;;;;;;;;;;;;;;2083118;28;1914;-86
2021/11/19 04:09:00;;;;;;;;;;;;;;;;;;2100151;28;1538;-86
2021/11/19 04:10:03;;;;;;;;;;;;;;;;;;2099233;28;1219;-85
2021/11/19 04:11:05;;;;;;;;;;;;;;;;;;2099329;28;1410;-85
2021/11/19 04:12:06;;;;;;;;;;;;;;;;;;2099187;28;1487;-85
2021/11/19 04:13:08;;;;;;;;;;;;;;;;;;2098633;28;1157;-86
2021/11/19 04:14:10;;;;;;;;;;;;;;;;;;2091463;28;1421;-85
2021/11/19 04:15:14;;;;;;;;;;;;;;;;;;2099232;28;1191;-85
2021/11/19 04:16:18;;;;;;;;;;;;;;;;;;2099229;28;1383;-85
2021/11/19 04:17:21;;;;;;;;;;;;;;;;;;2099299;28;1181;-85
2021/11/19 04:18:24;;;;;;;;;;;;;;;;;;2098589;28;2144;-83
2021/11/19 04:19:26;;;;;;;;;;;;;;;;;;2099213;28;1190;-83
2021/11/19 04:20:28;;;;;;;;;;;;;;;;;;2090492;28;1244;-83
2021/11/19 04:21:30;;;;;;;;;;;;;;;;;;2087058;28;1349;-82
2021/11/19 04:22:31;;;;;;;;;;;;;;;;;;2099463;28;1260;-83
2021/11/19 04:23:32;;;;;;;;;;;;;;;;;;2093014;28;2049;-82
2021/11/19 04:24:35;;;;;;;;;;;;;;;;;;2090626;28;1334;-82
2021/11/19 04:25:38;;;;;;;;;;;;;;;;;;2090925;28;1474;-82
2021/11/19 04:26:41;;;;;;;;;;;;;;;;;;2088840;28;1283;-83
2021/11/19 04:27:42;;;;;;;;;;;;;;;;;;2091099;28;1910;-83
2021/11/19 04:29:13;;;;;;;;;;;;;;;;;;2073476;28;1418;-82
2021/11/19 04:30:25;;;;;;;;;;;;;;;;;;2095100;28;1340;-83
2021/11/19 04:31:29;;;;;;;;;;;;;;;;;;2094257;28;1422;-85
2021/11/19 04:32:32;;;;;;;;;;;;;;;;;;2099299;28;1354;-85
2021/11/19 04:33:34;;;;;;;;;;;;;;;;;;2098284;28;1231;-85
2021/11/19 04:34:35;;;;;;;;;;;;;;;;;;2090315;28;1413;-85
2021/11/19 04:35:37;;;;;;;;;;;;;;;;;;2098886;28;1492;-85
2021/11/19 04:36:40;;;;;;;;;;;;;;;;;;2092772;28;2031;-85
2021/11/19 04:37:41;;;;;;;;;;;;;;;;;;2093386;28;1358;-86
2021/11/19 04:38:46;;;;;;;;;;;;;;;;;;2090057;28;2102;-86
2021/11/19 04:39:47;;;;;;;;;;;;;;;;;;2090784;28;1350;-86
2021/11/19 04:40:49;;;;;;;;;;;;;;;;;;2089549;28;1335;-85
2021/11/19 04:41:51;;;;;;;;;;;;;;;;;;2090959;28;2056;-85
2021/11/19 04:42:53;;;;;;;;;;;;;;;;;;2090916;28;1341;-84
2021/11/19 04:43:55;;;;;;;;;;;;;;;;;;2090104;28;1365;-85
2021/11/19 04:45:03;;;;;;;;;;;;;;;;;;2091516;28;1597;-85
2021/11/19 04:46:06;;;;;;;;;;;;;;;;;;2090805;28;1240;-86
2021/11/19 04:47:08;;;;;;;;;;;;;;;;;;2098849;28;1441;-86
2021/11/19 04:48:10;;;;;;;;;;;;;;;;;;2098877;28;2120;-85
2021/11/19 04:49:12;;;;;;;;;;;;;;;;;;2089431;28;1370;-85
2021/11/19 04:50:13;;;;;;;;;;;;;;;;;;2092541;28;1319;-86
2021/11/19 04:51:16;;;;;;;;;;;;;;;;;;2098866;28;2059;-84
2021/11/19 04:52:17;;;;;;;;;;;;;;;;;;2091077;28;1303;-84
2021/11/19 04:53:21;;;;;;;;;;;;;;;;;;2098685;28;2034;-84
2021/11/19 04:54:24;;;;;;;;;;;;;;;;;;2083302;28;1429;-84
2021/11/19 04:55:27;;;;;;;;;;;;;;;;;;2082600;28;1358;-83
2021/11/19 04:56:28;;;;;;;;;;;;;;;;;;2086619;28;2077;-83
2021/11/19 04:57:30;;;;;;;;;;;;;;;;;;2083804;28;1188;-83
2021/11/19 04:58:30;;;;;;;;;;;;;;;;;;2097924;28;2042;-84
2021/11/19 04:59:33;;;;;;;;;;;;;;;;;;2096203;28;1425;-86
2021/11/19 05:00:37;;;;;;;;;;;;;;;;;;2099708;28;1350;-83
2021/11/19 05:01:59;;;;;;;;;;;;;;;;;;2094631;28;1456;-83
2021/11/19 05:03:37;;;;;;;;;;;;;;;;;;2092002;28;2147;-83
2021/11/19 05:04:38;;;;;;;;;;;;;;;;;;2097290;28;1516;-84
2021/11/19 05:05:41;;;;;;;;;;;;;;;;;;2100491;28;1444;-83
2021/11/19 05:06:42;;;;;;;;;;;;;;;;;;2092142;28;1128;-84
2021/11/19 05:07:44;;;;;;;;;;;;;;;;;;2092427;28;1334;-85
2021/11/19 05:08:46;;;;;;;;;;;;;;;;;;2084533;28;1906;-84
2021/11/19 05:09:47;;;;;;;;;;;;;;;;;;2092162;28;1316;-83
2021/11/19 05:10:51;;;;;;;;;;;;;;;;;;2100267;28;1397;-83
2021/11/19 05:11:53;;;;;;;;;;;;;;;;;;2093164;28;1902;-83
2021/11/19 05:12:56;;;;;;;;;;;;;;;;;;2100402;28;1341;-82
2021/11/19 05:13:58;;;;;;;;;;;;;;;;;;2092178;28;1589;-83
2021/11/19 05:15:01;;;;;;;;;;;;;;;;;;2100340;28;1159;-83
2021/11/19 05:16:03;;;;;;;;;;;;;;;;;;2091623;28;1350;-83
2021/11/19 05:17:06;;;;;;;;;;;;;;;;;;2089055;28;1346;-83
2021/11/19 05:18:06;;;;;;;;;;;;;;;;;;2097208;28;1424;-83
2021/11/19 05:19:10;;;;;;;;;;;;;;;;;;2091749;28;1249;-83
2021/11/19 05:20:12;;;;;;;;;;;;;;;;;;2092110;28;1366;-85
2021/11/19 05:21:16;;;;;;;;;;;;;;;;;;2091835;28;1771;-86
2021/11/19 05:22:17;;;;;;;;;;;;;;;;;;2097556;28;1533;-84
2021/11/19 05:23:20;;;;;;;;;;;;;;;;;;2100154;28;1694;-85
2021/11/19 05:24:22;;;;;;;;;;;;;;;;;;2095230;28;1361;-84
2021/11/19 05:25:24;;;;;;;;;;;;;;;;;;2097719;28;1370;-89
2021/11/19 05:26:30;;;;;;;;;;;;;;;;;;2087572;28;1978;-87
2021/11/19 05:27:31;;;;;;;;;;;;;;;;;;2083491;28;1307;-88
2021/11/19 05:28:33;;;;;;;;;;;;;;;;;;2091756;28;2000;-92
2021/11/19 05:29:37;;;;;;;;;;;;;;;;;;2099597;28;1422;-89
2021/11/19 05:30:39;;;;;;;;;;;;;;;;;;2100760;28;1499;-87
2021/11/19 05:31:42;;;;;;;;;;;;;;;;;;2092489;28;1283;-86
2021/11/19 05:32:44;;;;;;;;;;;;;;;;;;2084330;28;1192;-86
2021/11/19 05:33:46;;;;;;;;;;;;;;;;;;2097671;28;1487;-85
2021/11/19 05:34:49;;;;;;;;;;;;;;;;;;2095461;28;1318;-85
2021/11/19 05:35:51;;;;;;;;;;;;;;;;;;2100042;28;1602;-86
2021/11/19 05:36:52;;;;;;;;;;;;;;;;;;2092223;28;1949;-87
2021/11/19 05:37:54;;;;;;;;;;;;;;;;;;2091213;28;1176;-89
2021/11/19 05:38:55;;;;;;;;;;;;;;;;;;2091246;28;1284;-90
2021/11/19 05:39:57;;;;;;;;;;;;;;;;;;2083018;28;1280;-87
2021/11/19 05:40:59;;;;;;;;;;;;;;;;;;2090573;28;1246;-85
2021/11/19 05:42:02;;;;;;;;;;;;;;;;;;2090780;28;1310;-83
2021/11/19 05:43:03;;;;;;;;;;;;;;;;;;2083422;28;2118;-83
2021/11/19 05:44:17;;;;;;;;;;;;;;;;;;2093234;28;1058;-83
2021/11/19 05:45:30;;;;;;;;;;;;;;;;;;2099539;28;1353;-85
2021/11/19 05:46:41;;;;;;;;;;;;;;;;;;2091903;28;1229;-86
2021/11/19 05:47:46;;;;;;;;;;;;;;;;;;2092544;28;1334;-87
2021/11/19 05:48:51;;;;;;;;;;;;;;;;;;2099777;28;1895;-87
2021/11/19 05:50:00;;;;;;;;;;;;;;;;;;2091555;28;1315;-86
2021/11/19 05:51:01;;;;;;;;;;;;;;;;;;2092512;28;1870;-86
2021/11/19 05:52:05;;;;;;;;;;;;;;;;;;2091649;28;1348;-86
2021/11/19 05:53:07;;;;;;;;;;;;;;;;;;2092005;28;2121;-86
2021/11/19 05:54:11;;;;;;;;;;;;;;;;;;2094926;28;1496;-86
2021/11/19 05:55:14;;;;;;;;;;;;;;;;;;2091681;28;1605;-86
2021/11/19 05:56:16;;;;;;;;;;;;;;;;;;2089132;28;1906;-89
2021/11/19 05:57:17;;;;;;;;;;;;;;;;;;2091458;28;1369;-86
2021/11/19 05:58:19;;;;;;;;;;;;;;;;;;2091694;28;1360;-89
2021/11/19 05:59:22;;;;;;;;;;;;;;;;;;2094154;28;1557;-88
2021/11/19 06:00:44;;;;;;;;;;;;;;;;;;2105721;28;670;-87
2021/11/19 06:01:55;;;;;;;;;;;;;;;;;;2091773;28;1957;-88
2021/11/19 06:03:00;;;;;;;;;;;;;;;;;;2091972;28;2018;-87
2021/11/19 06:04:05;;;;;;;;;;;;;;;;;;2091857;28;1062;-87
2021/11/19 06:05:27;;;;;;;;;;;;;;;;;;2092004;28;662;-86
2021/11/19 06:06:43;;;;;;;;;;;;;;;;;;2092268;28;1857;-86
2021/11/19 06:07:45;;;;;;;;;;;;;;;;;;2091939;28;1374;-91
2021/11/19 06:08:46;;;;;;;;;;;;;;;;;;2099484;28;2002;-86
2021/11/19 06:09:49;;;;;;;;;;;;;;;;;;2091625;28;1211;-86
2021/11/19 06:10:53;;;;;;;;;;;;;;;;;;2091501;28;1404;-87
2021/11/19 06:11:55;;;;;;;;;;;;;;;;;;2099090;28;1882;-87
2021/11/19 06:12:59;;;;;;;;;;;;;;;;;;2091335;28;1240;-87
2021/11/19 06:14:04;;;;;;;;;;;;;;;;;;2092208;28;1479;-88
2021/11/19 06:15:09;;;;;;;;;;;;;;;;;;2099001;28;1782;-87
2021/11/19 06:16:13;;;;;;;;;;;;;;;;;;2089623;28;1921;-89
2021/11/19 06:17:15;;;;;;;;;;;;;;;;;;2091435;28;852;-86
2021/11/19 06:18:18;;;;;;;;;;;;;;;;;;2091533;28;2062;-89
2021/11/19 06:19:20;;;;;;;;;;;;;;;;;;2096107;28;1486;-84
2021/11/19 06:20:23;;;;;;;;;;;;;;;;;;2092147;28;1529;-84
2021/11/19 06:21:29;;;;;;;;;;;;;;;;;;2096977;28;1845;-86
2021/11/19 06:22:33;;;;;;;;;;;;;;;;;;2107962;28;1353;-86
2021/11/19 06:23:36;;;;;;;;;;;;;;;;;;2107743;28;1486;-86
2021/11/19 06:24:38;;;;;;;;;;;;;;;;;;2099713;28;1271;-84
2021/11/19 06:25:40;;;;;;;;;;;;;;;;;;2091431;28;1263;-87
2021/11/19 06:26:43;;;;;;;;;;;;;;;;;;2083575;28;1925;-87
2021/11/19 06:27:45;;;;;;;;;;;;;;;;;;2083097;28;1126;-87
2021/11/19 06:28:47;;;;;;;;;;;;;;;;;;2091664;28;2133;-87
2021/11/19 06:29:49;;;;;;;;;;;;;;;;;;2091262;28;1507;-87
2021/11/19 06:30:51;;;;;;;;;;;;;;;;;;2084789;28;1633;-85
2021/11/19 06:31:54;;;;;;;;;;;;;;;;;;2091302;28;1381;-86
2021/11/19 06:32:56;;;;;;;;;;;;;;;;;;2098105;28;1642;-87
2021/11/19 06:33:57;;;;;;;;;;;;;;;;;;2091676;28;1384;-90
2021/11/19 06:34:59;;;;;;;;;;;;;;;;;;2096601;28;1639;-89
2021/11/19 06:36:00;;;;;;;;;;;;;;;;;;2091124;28;1919;-87
2021/11/19 06:37:03;;;;;;;;;;;;;;;;;;2091093;28;1012;-87
2021/11/19 06:38:13;;;;;;;;;;;;;;;;;;2092940;28;1190;-88
2021/11/19 06:39:41;;;;;;;;;;;;;;;;;;2098873;28;1629;-87
2021/11/19 06:40:42;;;;;;;;;;;;;;;;;;2106722;28;1576;-86
2021/11/19 06:42:10;;;;;;;;;;;;;;;;;;2102490;28;1551;-86
2021/11/19 06:43:30;;;;;;;;;;;;;;;;;;2094200;28;1815;-94
2021/11/19 06:46:42;;;;;;;;;;;;;;;;;;2073751;28;1940;-94
2021/11/19 06:48:20;;;;;;;;;;;;;;;;;;2077079;28;1716;-90
2021/11/19 06:49:42;;;;;;;;;;;;;;;;;;2095402;28;1012;-89
2021/11/19 06:51:03;;;;;;;;;;;;;;;;;;2092981;28;1860;-87
2021/11/19 06:52:35;;;;;;;;;;;;;;;;;;2086437;28;1198;-87
2021/11/19 06:53:57;;;;;;;;;;;;;;;;;;2099916;28;645;-88
2021/11/19 06:55:17;;;;;;;;;;;;;;;;;;2100128;28;986;-88
2021/11/19 06:56:45;;;;;;;;;;;;;;;;;;2090748;28;1883;-87
2021/11/19 06:57:59;;;;;;;;;;;;;;;;;;2099836;28;1798;-87
2021/11/19 06:59:00;;;;;;;;;;;;;;;;;;2090999;28;1203;-86
2021/11/19 07:00:02;;;;;;;;;;;;;;;;;;2091035;28;1199;-87
2021/11/19 07:01:04;;;;;;;;;;;;;;;;;;2090809;28;1874;-87
2021/11/19 07:02:06;;;;;;;;;;;;;;;;;;2090981;28;1290;-87
2021/11/19 07:03:08;;;;;;;;;;;;;;;;;;2091822;28;2046;-88
2021/11/19 07:04:09;;;;;;;;;;;;;;;;;;2091087;28;1460;-87
2021/11/19 07:05:11;;;;;;;;;;;;;;;;;;2091190;28;1281;-87
2021/11/19 07:06:12;;;;;;;;;;;;;;;;;;2092948;28;1898;-87
2021/11/19 07:07:14;;;;;;;;;;;;;;;;;;2090924;28;1327;-87
2021/11/19 07:08:18;;;;;;;;;;;;;;;;;;2095264;28;1214;-88
2021/11/19 07:09:19;;;;;;;;;;;;;;;;;;2091212;28;1983;-87
2021/11/19 07:10:24;;;;;;;;;;;;;;;;;;2091347;28;1321;-86
2021/11/19 07:11:25;;;;;;;;;;;;;;;;;;2090768;28;2037;-87
2021/11/19 07:12:27;;;;;;;;;;;;;;;;;;2099479;28;1361;-87
2021/11/19 07:13:35;;;;;;;;;;;;;;;;;;2091800;28;1220;-86
2021/11/19 07:14:35;;;;;;;;;;;;;;;;;;2091322;28;1218;-87
2021/11/19 07:15:37;;;;;;;;;;;;;;;;;;2098982;28;1700;-87
2021/11/19 07:16:38;;;;;;;;;;;;;;;;;;2098697;28;1854;-87
2021/11/19 07:17:40;;;;;;;;;;;;;;;;;;2091044;28;1340;-87
2021/11/19 07:18:41;;;;;;;;;;;;;;;;;;2098771;28;2090;-89
2021/11/19 07:19:46;;;;;;;;;;;;;;;;;;2090720;28;1346;-86
2021/11/19 07:20:47;;;;;;;;;;;;;;;;;;2091105;28;1263;-86
2021/11/19 07:21:48;;;;;;;;;;;;;;;;;;2097989;28;1951;-87
2021/11/19 07:22:50;;;;;;;;;;;;;;;;;;2098953;28;1935;-87
2021/11/19 07:23:53;;;;;;;;;;;;;;;;;;2098697;28;1299;-87
2021/11/19 07:24:55;;;;;;;;;;;;;;;;;;2099357;28;1330;-85
2021/11/19 07:25:55;;;;;;;;;;;;;;;;;;2090384;28;2060;-88
2021/11/19 07:26:57;;;;;;;;;;;;;;;;;;2099168;28;1132;-87